createdAt,value
2019-01-11T00:00:59.804Z,85.00
2019-01-11T00:03:29.385Z,84.90
2019-01-11T00:05:59.008Z,85.10
2019-01-11T00:08:28.611Z,85.00
2019-01-11T00:10:58.272Z,85.60
2019-01-11T00:13:27.875Z,85.60
2019-01-11T00:15:58.562Z,85.10
2019-01-11T00:18:28.228Z,84.80
2019-01-11T00:20:57.845Z,85.30
2019-01-11T00:23:27.439Z,85.90
2019-01-11T00:25:57.048Z,85.10
2019-01-11T00:28:26.656Z,84.90
2019-01-11T00:30:56.274Z,84.40
2019-01-11T00:33:25.872Z,84.70
2019-01-11T00:35:55.487Z,84.50
2019-01-11T00:38:25.080Z,84.40
2019-01-11T00:40:54.702Z,84.60
2019-01-11T00:43:24.318Z,84.30
2019-01-11T00:45:53.915Z,84.00
2019-01-11T00:48:23.536Z,83.90
2019-01-11T00:50:53.144Z,83.70
2019-01-11T00:53:22.749Z,84.30
2019-01-11T00:55:52.340Z,84.20
2019-01-11T00:58:21.945Z,84.10
2019-01-11T01:00:51.530Z,85.30
2019-01-11T01:03:21.136Z,85.40
2019-01-11T01:05:50.734Z,85.50
2019-01-11T01:08:20.532Z,85.50
2019-01-11T01:10:50.145Z,85.30
2019-01-11T01:13:19.756Z,85.60
2019-01-11T01:15:49.422Z,85.60
2019-01-11T01:18:19.040Z,85.20
2019-01-11T01:20:48.638Z,85.50
2019-01-11T01:23:18.284Z,85.50
2019-01-11T01:25:47.870Z,85.20
2019-01-11T01:28:17.574Z,85.00
2019-01-11T01:30:47.184Z,84.90
2019-01-11T01:33:16.800Z,84.80
2019-01-11T01:35:46.427Z,85.00
2019-01-11T01:38:16.018Z,85.00
2019-01-11T01:40:45.626Z,84.90
2019-01-11T01:43:15.218Z,84.50
2019-01-11T01:45:44.834Z,84.10
2019-01-11T01:48:14.438Z,84.50
2019-01-11T01:50:44.058Z,85.00
2019-01-11T01:53:13.651Z,84.60
2019-01-11T01:55:43.262Z,84.40
2019-01-11T01:58:12.864Z,84.90
2019-01-11T02:00:42.474Z,84.80
2019-01-11T02:03:12.066Z,85.20
2019-01-11T02:05:41.676Z,85.20
2019-01-11T02:08:11.278Z,85.10
2019-01-11T02:10:40.885Z,84.80
2019-01-11T02:13:10.478Z,85.20
2019-01-11T02:15:40.092Z,85.00
2019-01-11T02:18:09.686Z,85.00
2019-01-11T02:20:39.304Z,85.10
2019-01-11T02:23:08.912Z,85.10
2019-01-11T02:25:38.540Z,86.40
2019-01-11T02:28:08.140Z,86.80
2019-01-11T02:30:37.764Z,87.30
2019-01-11T02:33:07.360Z,86.50
2019-01-11T02:35:36.973Z,86.10
2019-01-11T02:38:06.610Z,85.70
2019-01-11T02:40:36.214Z,86.10
2019-01-11T02:43:05.820Z,85.90
2019-01-11T02:45:35.415Z,86.10
2019-01-11T02:48:05.032Z,86.10
2019-01-11T02:50:34.626Z,86.10
2019-01-11T02:53:04.240Z,86.70
2019-01-11T02:55:33.838Z,86.80
2019-01-11T02:58:03.444Z,86.50
2019-01-11T03:00:33.040Z,86.60
2019-01-11T03:03:02.647Z,85.90
2019-01-11T03:05:32.243Z,86.10
2019-01-11T03:08:01.870Z,86.80
2019-01-11T03:10:31.476Z,86.60
2019-01-11T03:13:01.102Z,86.40
2019-01-11T03:15:30.700Z,86.70
2019-01-11T03:18:00.311Z,86.60
2019-01-11T03:20:29.921Z,87.60
2019-01-11T03:22:59.534Z,87.70
2019-01-11T03:25:29.127Z,87.50
2019-01-11T03:27:58.727Z,88.50
2019-01-11T03:30:28.427Z,88.20
2019-01-11T03:32:58.033Z,88.20
2019-01-11T03:35:27.639Z,87.80
2019-01-11T03:37:57.243Z,87.60
2019-01-11T03:40:27.336Z,87.60
2019-01-11T03:42:56.924Z,87.80
2019-01-11T03:45:26.623Z,87.80
2019-01-11T03:47:57.291Z,87.80
2019-01-11T03:50:26.910Z,87.90
2019-01-11T03:52:56.505Z,87.60
2019-01-11T03:55:26.193Z,87.60
2019-01-11T03:57:55.792Z,87.50
2019-01-11T04:00:25.391Z,87.40
2019-01-11T04:02:54.999Z,87.50
2019-01-11T04:05:24.619Z,87.90
2019-01-11T04:07:54.255Z,87.80
2019-01-11T04:10:23.863Z,88.00
2019-01-11T04:12:53.482Z,87.80
2019-01-11T04:15:23.085Z,88.40
2019-01-11T04:18:06.399Z,88.10
2019-01-11T04:20:36.001Z,88.30
2019-01-11T04:23:05.607Z,87.80
2019-01-11T04:25:36.871Z,88.50
2019-01-11T04:28:06.557Z,88.50
2019-01-11T04:30:36.165Z,88.30
2019-01-11T04:33:05.865Z,88.30
2019-01-11T04:35:35.465Z,88.50
2019-01-11T04:38:05.091Z,88.50
2019-01-11T04:40:34.691Z,88.30
2019-01-11T04:43:04.294Z,88.20
2019-01-11T04:45:33.899Z,88.50
2019-01-11T04:48:03.779Z,88.30
2019-01-11T04:50:33.386Z,88.30
2019-01-11T04:53:02.988Z,88.50
2019-01-11T04:55:32.612Z,88.30
2019-01-11T04:58:02.207Z,88.70
2019-01-11T05:00:31.828Z,88.50
2019-01-11T05:03:01.422Z,88.60
2019-01-11T05:05:31.031Z,88.60
2019-01-11T05:08:00.639Z,88.50
2019-01-11T05:10:30.267Z,88.70
2019-01-11T05:13:01.517Z,88.60
2019-01-11T05:15:31.126Z,89.30
2019-01-11T05:18:00.723Z,89.40
2019-01-11T05:20:30.411Z,89.40
2019-01-11T05:23:00.036Z,89.10
2019-01-11T05:25:29.655Z,89.70
2019-01-11T05:27:59.254Z,90.00
2019-01-11T05:30:28.948Z,89.50
2019-01-11T05:32:58.547Z,89.00
2019-01-11T05:35:28.146Z,89.20
2019-01-11T05:37:57.758Z,89.30
2019-01-11T05:40:27.363Z,89.40
2019-01-11T05:42:56.969Z,89.20
2019-01-11T05:45:26.586Z,89.20
2019-01-11T05:47:56.254Z,89.30
2019-01-11T05:50:25.855Z,89.30
2019-01-11T05:52:55.463Z,89.50
2019-01-11T05:55:26.715Z,89.60
2019-01-11T05:58:03.943Z,89.40
2019-01-11T06:00:33.535Z,89.20
2019-01-11T06:03:03.149Z,89.60
2019-01-11T06:05:32.745Z,89.20
2019-01-11T06:08:03.930Z,89.30
2019-01-11T06:10:33.532Z,89.30
2019-01-11T06:13:03.243Z,90.30
2019-01-11T06:15:32.861Z,90.40
2019-01-11T06:18:02.480Z,90.20
2019-01-11T06:20:32.095Z,90.10
2019-01-11T06:23:01.683Z,89.50
2019-01-11T06:25:31.320Z,89.20
2019-01-11T06:28:00.922Z,89.00
2019-01-11T06:30:30.537Z,88.80
2019-01-11T06:33:00.144Z,88.70
2019-01-11T06:35:29.769Z,88.70
2019-01-11T06:37:59.364Z,88.40
2019-01-11T06:40:29.050Z,88.70
2019-01-11T06:43:03.539Z,88.90
2019-01-11T06:45:29.987Z,88.80
2019-01-11T06:47:59.675Z,89.30
2019-01-11T06:50:29.288Z,88.90
2019-01-11T06:52:58.887Z,89.70
2019-01-11T06:55:28.565Z,89.80
2019-01-11T06:57:58.179Z,89.80
2019-01-11T07:00:27.799Z,89.90
2019-01-11T07:02:57.408Z,89.90
2019-01-11T07:05:27.024Z,90.00
2019-01-11T07:07:56.641Z,90.40
2019-01-11T07:10:26.239Z,90.30
2019-01-11T07:12:55.889Z,90.20
2019-01-11T07:15:25.654Z,90.30
2019-01-11T07:17:55.453Z,90.50
2019-01-11T07:20:25.057Z,91.40
2019-01-11T07:22:54.681Z,91.40
2019-01-11T07:25:24.286Z,91.70
2019-01-11T07:27:58.509Z,91.00
2019-01-11T07:30:29.745Z,91.40
2019-01-11T07:32:59.531Z,91.30
2019-01-11T07:35:30.771Z,91.10
2019-01-11T07:38:00.409Z,91.00
2019-01-11T07:40:30.008Z,90.80
2019-01-11T07:42:59.622Z,90.90
2019-01-11T07:45:29.216Z,90.70
2019-01-11T07:47:58.855Z,90.70
2019-01-11T07:50:28.459Z,90.70
2019-01-11T07:52:58.073Z,90.50
2019-01-11T07:55:27.680Z,90.60
2019-01-11T07:57:57.316Z,90.80
2019-01-11T08:00:26.926Z,90.80
2019-01-11T08:02:56.560Z,90.50
2019-01-11T08:05:26.174Z,91.20
2019-01-11T08:07:55.860Z,90.90
2019-01-11T08:10:26.550Z,90.80
2019-01-11T08:12:56.161Z,90.70
2019-01-11T08:15:25.788Z,90.60
2019-01-11T08:17:55.390Z,90.70
2019-01-11T08:20:25.032Z,91.00
2019-01-11T08:22:54.618Z,91.20
2019-01-11T08:25:24.315Z,91.40
2019-01-11T08:27:53.918Z,91.20
2019-01-11T08:30:23.539Z,91.20
2019-01-11T08:32:53.202Z,91.40
2019-01-11T08:35:22.864Z,91.40
2019-01-11T08:37:52.504Z,91.40
2019-01-11T08:40:22.112Z,91.80
2019-01-11T08:42:51.748Z,91.80
2019-01-11T08:45:21.362Z,91.60
2019-01-11T08:47:50.972Z,91.40
2019-01-11T08:50:21.536Z,92.30
2019-01-11T08:52:51.136Z,92.80
2019-01-11T08:55:20.788Z,92.00
2019-01-11T08:57:50.398Z,92.80
2019-01-11T09:00:20.052Z,92.60
2019-01-11T09:02:49.720Z,92.40
2019-01-11T09:05:19.332Z,92.20
2019-01-11T09:07:48.966Z,92.00
2019-01-11T09:10:22.833Z,91.70
2019-01-11T09:12:49.920Z,91.90
2019-01-11T09:15:19.524Z,92.00
2019-01-11T09:17:50.788Z,92.00
2019-01-11T09:20:20.402Z,91.70
2019-01-11T09:22:50.002Z,91.70
2019-01-11T09:25:19.744Z,91.80
2019-01-11T09:27:49.372Z,91.60
2019-01-11T09:30:19.038Z,91.50
2019-01-11T09:32:48.751Z,91.10
2019-01-11T09:35:18.354Z,91.00
2019-01-11T09:37:47.978Z,90.90
2019-01-11T09:40:17.578Z,91.00
2019-01-11T09:42:47.209Z,91.00
2019-01-11T09:45:16.821Z,91.00
2019-01-11T09:47:46.440Z,90.90
2019-01-11T09:50:16.048Z,90.90
2019-01-11T09:52:45.681Z,90.90
2019-01-11T09:55:15.311Z,91.00
2019-01-11T09:57:44.998Z,91.10
2019-01-11T10:00:20.326Z,91.00
2019-01-11T10:02:51.596Z,90.90
2019-01-11T10:05:21.226Z,90.60
2019-01-11T10:07:50.870Z,90.90
2019-01-11T10:10:20.484Z,91.40
2019-01-11T10:12:50.098Z,91.40
2019-01-11T10:15:19.723Z,91.30
2019-01-11T10:17:50.337Z,91.10
2019-01-11T10:20:19.948Z,91.60
2019-01-11T10:22:49.561Z,91.50
2019-01-11T10:25:20.823Z,91.30
2019-01-11T10:27:52.168Z,91.20
2019-01-11T10:30:22.392Z,91.50
2019-01-11T10:32:52.175Z,91.60
2019-01-11T10:35:21.844Z,91.30
2019-01-11T10:37:51.458Z,91.40
2019-01-11T10:40:22.015Z,91.60
2019-01-11T10:42:51.642Z,91.70
2019-01-11T10:45:21.520Z,91.70
2019-01-11T10:47:52.158Z,91.80
2019-01-11T10:50:21.800Z,91.90
2019-01-11T10:52:51.458Z,92.40
2019-01-11T10:55:21.375Z,92.50
2019-01-11T10:57:50.976Z,92.10
2019-01-11T11:00:40.025Z,92.00
2019-01-11T11:03:09.642Z,92.00
2019-01-11T11:05:39.249Z,91.80
2019-01-11T11:08:09.340Z,91.80
2019-01-11T11:10:38.957Z,91.80
2019-01-11T11:13:08.580Z,91.70
2019-01-11T11:15:39.844Z,91.70
2019-01-11T11:18:09.465Z,91.70
2019-01-11T11:20:39.063Z,91.60
2019-01-11T11:23:08.683Z,91.80
2019-01-11T11:25:38.311Z,92.00
2019-01-11T11:28:07.915Z,92.30
2019-01-11T11:30:37.579Z,92.60
2019-01-11T11:33:07.259Z,92.30
2019-01-11T11:35:36.874Z,91.90
2019-01-11T11:38:08.116Z,92.00
2019-01-11T11:40:37.724Z,92.10
2019-01-11T11:43:07.352Z,92.00
2019-01-11T11:45:36.964Z,92.20
2019-01-11T11:48:06.576Z,92.30
2019-01-11T11:50:36.196Z,92.30
2019-01-11T11:53:05.793Z,92.30
2019-01-11T11:55:35.401Z,91.60
2019-01-11T11:58:05.003Z,91.60
2019-01-11T12:00:34.618Z,91.70
